TimeEDT,TemperatureF,Dew PointF,Humidity,Sea Level PressureIn,VisibilityMPH,Wind Direction,Wind SpeedMPH,Gust SpeedMPH,PrecipitationIn,Events,Conditions,WindDirDegrees,DateUTC
12:54 AM,68.0,64.0,87,29.91,6.0,SSW,3.5,-,N/A,,Scattered Clouds,210,2012-09-07 04:54:00
1:54 AM,66.9,64.0,90,29.91,6.0,Calm,Calm,-,N/A,,Scattered Clouds,0,2012-09-07 05:54:00
2:54 AM,66.9,63.0,87,29.90,6.0,Calm,Calm,-,N/A,,Scattered Clouds,0,2012-09-07 06:54:00
3:54 AM,66.0,63.0,90,29.89,6.0,Calm,Calm,-,N/A,,Scattered Clouds,0,2012-09-07 07:54:00
4:54 AM,64.9,62.1,90,29.90,6.0,Calm,Calm,-,N/A,,Scattered Clouds,0,2012-09-07 08:54:00
5:54 AM,64.9,62.1,90,29.90,6.0,SE,8.1,-,N/A,,Scattered Clouds,140,2012-09-07 09:54:00
6:54 AM,64.0,62.1,93,29.90,6.0,South,4.6,-,N/A,,Partly Cloudy,170,2012-09-07 10:54:00
7:54 AM,66.0,62.1,87,29.91,8.0,Calm,Calm,-,N/A,,Scattered Clouds,0,2012-09-07 11:54:00
8:54 AM,68.0,63.0,84,29.91,10.0,South,4.6,-,N/A,,Partly Cloudy,180,2012-09-07 12:54:00
9:54 AM,73.0,62.1,68,29.91,10.0,South,6.9,-,N/A,,Scattered Clouds,170,2012-09-07 13:54:00
10:54 AM,77.0,60.1,56,29.90,10.0,SSW,6.9,-,N/A,,Mostly Cloudy,210,2012-09-07 14:54:00
11:54 AM,81.0,55.9,42,29.89,10.0,SSW,10.4,-,N/A,,Mostly Cloudy,210,2012-09-07 15:54:00
12:54 PM,81.0,57.9,45,29.88,10.0,WSW,15.0,-,N/A,,Mostly Cloudy,250,2012-09-07 16:54:00
1:54 PM,82.0,61.0,49,29.85,10.0,SW,10.4,-,N/A,,Overcast,230,2012-09-07 17:54:00
2:54 PM,81.0,62.1,52,29.85,10.0,SW,11.5,-,N/A,,Overcast,220,2012-09-07 18:54:00
3:54 PM,80.1,59.0,48,29.82,10.0,SW,12.7,-,N/A,,Mostly Cloudy,220,2012-09-07 19:54:00
4:54 PM,80.1,59.0,48,29.83,10.0,SW,10.4,-,N/A,,Mostly Cloudy,230,2012-09-07 20:54:00
5:54 PM,77.0,61.0,58,29.81,10.0,SW,11.5,-,N/A,,Overcast,220,2012-09-07 21:54:00
6:54 PM,75.9,62.1,62,29.80,10.0,SW,6.9,-,N/A,,Mostly Cloudy,220,2012-09-07 22:54:00
7:54 PM,75.0,62.1,64,29.77,10.0,South,8.1,-,N/A,,Scattered Clouds,180,2012-09-07 23:54:00
8:54 PM,73.9,57.9,57,29.78,10.0,South,8.1,-,N/A,,Scattered Clouds,170,2012-09-08 00:54:00
9:54 PM,73.0,55.9,55,29.72,10.0,SSE,9.2,-,N/A,,Scattered Clouds,150,2012-09-08 01:54:00
10:54 PM,71.1,60.1,68,29.70,10.0,South,5.8,-,N/A,,Mostly Cloudy,170,2012-09-08 02:54:00
11:54 PM,71.1,60.1,68,29.68,10.0,South,5.8,-,N/A,,Mostly Cloudy,170,2012-09-08 03:54:00